sensor_id;sensor_type;location;lat;lon;timestamp;pressure;altitude;pressure_sealevel;temperature;humidity
68941;BME280;55982;51.476;7.552;2023-07-28T00:01:34;98835.56;;;18.04;100.00
68941;BME280;55982;51.476;7.552;2023-07-28T00:03:59;98831.38;;;18.01;100.00
68941;BME280;55982;51.476;7.552;2023-07-28T00:06:25;98834.75;;;18.03;100.00
68941;BME280;55982;51.476;7.552;2023-07-28T00:08:50;98829.66;;;18.00;100.00
68941;BME280;55982;51.476;7.552;2023-07-28T00:11:16;98823.66;;;17.98;100.00
68941;BME280;55982;51.476;7.552;2023-07-28T00:13:42;98817.75;;;18.06;100.00
68941;BME280;55982;51.476;7.552;2023-07-28T00:16:09;98831.59;;;17.98;100.00
68941;BME280;55982;51.476;7.552;2023-07-28T00:18:34;98829.06;;;17.97;100.00
68941;BME280;55982;51.476;7.552;2023-07-28T00:21:00;98827.16;;;17.99;100.00
68941;BME280;55982;51.476;7.552;2023-07-28T00:23:25;98833.50;;;17.96;100.00
68941;BME280;55982;51.476;7.552;2023-07-28T00:25:51;98822.94;;;17.96;100.00
68941;BME280;55982;51.476;7.552;2023-07-28T00:28:17;98825.81;;;18.04;100.00
68941;BME280;55982;51.476;7.552;2023-07-28T00:30:42;98830.78;;;17.98;100.00
68941;BME280;55982;51.476;7.552;2023-07-28T00:33:08;98831.84;;;17.95;100.00
68941;BME280;55982;51.476;7.552;2023-07-28T00:35:33;98819.09;;;18.00;100.00
68941;BME280;55982;51.476;7.552;2023-07-28T00:37:58;98824.84;;;17.94;100.00
68941;BME280;55982;51.476;7.552;2023-07-28T00:40:24;98830.78;;;17.98;100.00
68941;BME280;55982;51.476;7.552;2023-07-28T00:42:49;98825.69;;;18.06;100.00
68941;BME280;55982;51.476;7.552;2023-07-28T00:45:15;98821.50;;;18.03;100.00
68941;BME280;55982;51.476;7.552;2023-07-28T00:47:40;98811.88;;;17.91;100.00
68941;BME280;55982;51.476;7.552;2023-07-28T00:50:07;98820.31;;;18.07;100.00
68941;BME280;55982;51.476;7.552;2023-07-28T00:52:33;98821.00;;;17.98;100.00
68941;BME280;55982;51.476;7.552;2023-07-28T00:54:59;98824.13;;;17.92;100.00
68941;BME280;55982;51.476;7.552;2023-07-28T00:57:24;98820.41;;;17.95;100.00
68941;BME280;55982;51.476;7.552;2023-07-28T00:59:50;98816.81;;;17.96;100.00
68941;BME280;55982;51.476;7.552;2023-07-28T01:02:15;98825.09;;;17.91;100.00
68941;BME280;55982;51.476;7.552;2023-07-28T01:04:41;98827.41;;;17.96;100.00
68941;BME280;55982;51.476;7.552;2023-07-28T01:07:13;98825.09;;;17.91;100.00
68941;BME280;55982;51.476;7.552;2023-07-28T01:12:24;98815.00;;;17.85;100.00
68941;BME280;55982;51.476;7.552;2023-07-28T01:14:49;98821.75;;;17.89;100.00
68941;BME280;55982;51.476;7.552;2023-07-28T01:17:14;98820.19;;;17.98;100.00
68941;BME280;55982;51.476;7.552;2023-07-28T01:19:40;98823.44;;;18.01;100.00
68941;BME280;55982;51.476;7.552;2023-07-28T01:22:22;98815.72;;;17.98;100.00
68941;BME280;55982;51.476;7.552;2023-07-28T01:27:36;98819.34;;;17.97;100.00
68941;BME280;55982;51.476;7.552;2023-07-28T01:30:03;98824.03;;;17.94;100.00
68941;BME280;55982;51.476;7.552;2023-07-28T01:32:28;98814.16;;;17.85;100.00
68941;BME280;55982;51.476;7.552;2023-07-28T01:34:53;98817.63;;;17.96;100.00
68941;BME280;55982;51.476;7.552;2023-07-28T01:37:19;98810.91;;;17.92;100.00
68941;BME280;55982;51.476;7.552;2023-07-28T01:39:44;98820.19;;;17.98;100.00
68941;BME280;55982;51.476;7.552;2023-07-28T01:42:09;98816.19;;;17.92;100.00
68941;BME280;55982;51.476;7.552;2023-07-28T01:44:35;98810.41;;;17.98;100.00
68941;BME280;55982;51.476;7.552;2023-07-28T01:47:00;98808.97;;;17.94;100.00
68941;BME280;55982;51.476;7.552;2023-07-28T01:49:25;98815.50;;;17.90;100.00
68941;BME280;55982;51.476;7.552;2023-07-28T01:51:51;98810.09;;;17.92;100.00
68941;BME280;55982;51.476;7.552;2023-07-28T01:54:16;98822.47;;;17.91;100.00
68941;BME280;55982;51.476;7.552;2023-07-28T01:56:42;98821.25;;;17.95;100.00
68941;BME280;55982;51.476;7.552;2023-07-28T01:59:07;98817.41;;;17.99;100.00
68941;BME280;55982;51.476;7.552;2023-07-28T02:01:32;98827.16;;;17.99;100.00
68941;BME280;55982;51.476;7.552;2023-07-28T02:03:57;98822.22;;;18.05;100.00
68941;BME280;55982;51.476;7.552;2023-07-28T02:06:23;98828.00;;;17.99;100.00
68941;BME280;55982;51.476;7.552;2023-07-28T02:08:48;98824.38;;;18.00;100.00
68941;BME280;55982;51.476;7.552;2023-07-28T02:11:13;98829.06;;;17.97;100.00
68941;BME280;55982;51.476;7.552;2023-07-28T02:13:39;98834.38;;;17.97;100.00
68941;BME280;55982;51.476;7.552;2023-07-28T02:16:04;98829.66;;;18.00;100.00
68941;BME280;55982;51.476;7.552;2023-07-28T02:18:30;98831.84;;;17.95;100.00
68941;BME280;55982;51.476;7.552;2023-07-28T02:20:55;98829.44;;;18.03;100.00
68941;BME280;55982;51.476;7.552;2023-07-28T02:23:20;98824.97;;;18.04;100.00
68941;BME280;55982;51.476;7.552;2023-07-28T02:25:46;98825.81;;;18.04;100.00
68941;BME280;55982;51.476;7.552;2023-07-28T02:28:11;98824.38;;;18.00;100.00
68941;BME280;55982;51.476;7.552;2023-07-28T02:30:37;98822.72;;;17.99;100.00
68941;BME280;55982;51.476;7.552;2023-07-28T02:33:02;98822.72;;;17.99;100.00
68941;BME280;55982;51.476;7.552;2023-07-28T02:35:28;98831.84;;;18.06;100.00
68941;BME280;55982;51.476;7.552;2023-07-28T02:37:53;98829.91;;;17.97;100.00
68941;BME280;55982;51.476;7.552;2023-07-28T02:40:18;98831.84;;;17.95;100.00
68941;BME280;55982;51.476;7.552;2023-07-28T02:42:44;98837.84;;;18.08;100.00
68941;BME280;55982;51.476;7.552;2023-07-28T02:45:09;98829.44;;;18.03;100.00
68941;BME280;55982;51.476;7.552;2023-07-28T02:47:35;98834.00;;;18.01;100.00
68941;BME280;55982;51.476;7.552;2023-07-28T02:50:01;98840.25;;;18.00;100.00
68941;BME280;55982;51.476;7.552;2023-07-28T02:52:26;98834.25;;;17.98;100.00
68941;BME280;55982;51.476;7.552;2023-07-28T02:54:52;98847.72;;;18.06;100.00
68941;BME280;55982;51.476;7.552;2023-07-28T02:57:17;98850.75;;;18.02;100.00
68941;BME280;55982;51.476;7.552;2023-07-28T02:59:42;98843.38;;;17.94;100.00
68941;BME280;55982;51.476;7.552;2023-07-28T03:02:08;98848.19;;;18.00;100.00
68941;BME280;55982;51.476;7.552;2023-07-28T03:04:33;98855.41;;;17.98;100.00
68941;BME280;55982;51.476;7.552;2023-07-28T03:06:58;98861.56;;;17.99;100.00
68941;BME280;55982;51.476;7.552;2023-07-28T03:09:24;98861.69;;;17.97;100.00
68941;BME280;55982;51.476;7.552;2023-07-28T03:11:49;98854.22;;;18.02;100.00
68941;BME280;55982;51.476;7.552;2023-07-28T03:14:15;98850.13;;;17.98;100.00
68941;BME280;55982;51.476;7.552;2023-07-28T03:16:41;98854.47;;;17.99;100.00
68941;BME280;55982;51.476;7.552;2023-07-28T03:19:07;98871.31;;;18.09;100.00
68941;BME280;55982;51.476;7.552;2023-07-28T03:21:32;98858.44;;;18.05;100.00
68941;BME280;55982;51.476;7.552;2023-07-28T03:23:57;98860.72;;;18.09;100.00
68941;BME280;55982;51.476;7.552;2023-07-28T03:26:23;98866.25;;;18.06;100.00
68941;BME280;55982;51.476;7.552;2023-07-28T03:28:49;98870.81;;;18.15;100.00
68941;BME280;55982;51.476;7.552;2023-07-28T03:31:14;98866.63;;;18.13;100.00
68941;BME280;55982;51.476;7.552;2023-07-28T03:33:40;98867.94;;;18.07;100.00
68941;BME280;55982;51.476;7.552;2023-07-28T03:36:05;98873.25;;;18.07;100.00
68941;BME280;55982;51.476;7.552;2023-07-28T03:38:30;98871.66;;;18.16;100.00
68941;BME280;55982;51.476;7.552;2023-07-28T03:40:56;98867.44;;;18.13;100.00
68941;BME280;55982;51.476;7.552;2023-07-28T03:43:21;98865.50;;;18.15;100.00
68941;BME280;55982;51.476;7.552;2023-07-28T03:45:47;98865.50;;;18.15;100.00
68941;BME280;55982;51.476;7.552;2023-07-28T03:48:12;98866.72;;;18.22;100.00
68941;BME280;55982;51.476;7.552;2023-07-28T03:50:38;98871.75;;;18.25;100.00
68941;BME280;55982;51.476;7.552;2023-07-28T03:53:03;98870.81;;;18.15;100.00
68941;BME280;55982;51.476;7.552;2023-07-28T03:55:29;98873.69;;;18.23;100.00
68941;BME280;55982;51.476;7.552;2023-07-28T03:57:54;98866.94;;;18.19;100.00
68941;BME280;55982;51.476;7.552;2023-07-28T04:00:19;98870.59;;;18.18;100.00
68941;BME280;55982;51.476;7.552;2023-07-28T04:02:45;98873.69;;;18.23;100.00
68941;BME280;55982;51.476;7.552;2023-07-28T04:05:11;98871.44;;;18.19;100.00
68941;BME280;55982;51.476;7.552;2023-07-28T04:07:37;98873.84;;;18.11;100.00
68941;BME280;55982;51.476;7.552;2023-07-28T04:10:02;98881.63;;;18.23;100.00
68941;BME280;55982;51.476;7.552;2023-07-28T04:12:27;98879.00;;;18.23;100.00
68941;BME280;55982;51.476;7.552;2023-07-28T04:14:53;98881.16;;;18.29;100.00
68941;BME280;55982;51.476;7.552;2023-07-28T04:17:18;98891.28;;;18.24;100.00
68941;BME280;55982;51.476;7.552;2023-07-28T04:19:43;98880.69;;;18.24;100.00
68941;BME280;55982;51.476;7.552;2023-07-28T04:22:09;98883.31;;;18.36;100.00
68941;BME280;55982;51.476;7.552;2023-07-28T04:24:34;98880.22;;;18.31;100.00
68941;BME280;55982;51.476;7.552;2023-07-28T04:27:00;98878.50;;;18.29;100.00
68941;BME280;55982;51.476;7.552;2023-07-28T04:29:25;98886.25;;;18.44;100.00
68941;BME280;55982;51.476;7.552;2023-07-28T04:31:52;98883.31;;;18.36;100.00
68941;BME280;55982;51.476;7.552;2023-07-28T04:34:17;98885.47;;;18.42;100.00
68941;BME280;55982;51.476;7.552;2023-07-28T04:36:43;98882.13;;;18.51;100.00
68941;BME280;55982;51.476;7.552;2023-07-28T04:39:08;98890.44;;;18.57;100.00
68941;BME280;55982;51.476;7.552;2023-07-28T04:41:33;98898.97;;;18.61;100.00
68941;BME280;55982;51.476;7.552;2023-07-28T04:43:59;98892.91;;;18.70;100.00
68941;BME280;55982;51.476;7.552;2023-07-28T04:46:24;98896.78;;;18.66;100.00
68941;BME280;55982;51.476;7.552;2023-07-28T04:48:50;98897.63;;;18.66;100.00
68941;BME280;55982;51.476;7.552;2023-07-28T04:51:15;98899.91;;;18.71;100.00
68941;BME280;55982;51.476;7.552;2023-07-28T04:53:41;98896.78;;;18.66;100.00
68941;BME280;55982;51.476;7.552;2023-07-28T04:56:07;98904.81;;;18.86;100.00
68941;BME280;55982;51.476;7.552;2023-07-28T04:58:33;98899.59;;;18.96;100.00
68941;BME280;55982;51.476;7.552;2023-07-28T05:00:58;98899.06;;;19.02;100.00
68941;BME280;55982;51.476;7.552;2023-07-28T05:03:23;98890.75;;;19.06;100.00
68941;BME280;55982;51.476;7.552;2023-07-28T05:05:49;98890.59;;;19.19;100.00
68941;BME280;55982;51.476;7.552;2023-07-28T05:08:15;98886.53;;;19.15;100.00
68941;BME280;55982;51.476;7.552;2023-07-28T05:10:41;98879.72;;;19.22;100.00
68941;BME280;55982;51.476;7.552;2023-07-28T05:13:08;98886.69;;;19.23;100.00
68941;BME280;55982;51.476;7.552;2023-07-28T05:15:33;98887.91;;;19.30;100.00
68941;BME280;55982;51.476;7.552;2023-07-28T05:17:59;98879.22;;;19.28;100.00
68941;BME280;55982;51.476;7.552;2023-07-28T05:20:24;98881.41;;;19.23;100.00
68941;BME280;55982;51.476;7.552;2023-07-28T05:22:49;98885.72;;;19.35;100.00
68941;BME280;55982;51.476;7.552;2023-07-28T05:25:15;98883.53;;;19.40;100.00
68941;BME280;55982;51.476;7.552;2023-07-28T05:27:40;98889.09;;;19.37;100.00
68941;BME280;55982;51.476;7.552;2023-07-28T05:30:06;98882.13;;;19.36;100.00
68941;BME280;55982;51.476;7.552;2023-07-28T05:32:32;98888.13;;;19.38;100.00
68941;BME280;55982;51.476;7.552;2023-07-28T05:34:57;98880.56;;;19.54;100.00
68941;BME280;55982;51.476;7.552;2023-07-28T05:37:23;98887.94;;;19.51;100.00
68941;BME280;55982;51.476;7.552;2023-07-28T05:39:48;98887.56;;;19.55;100.00
68941;BME280;55982;51.476;7.552;2023-07-28T05:42:14;98889.44;;;19.44;100.00
68941;BME280;55982;51.476;7.552;2023-07-28T05:44:39;98886.13;;;19.51;100.00
68941;BME280;55982;51.476;7.552;2023-07-28T05:47:05;98890.91;;;19.57;100.00
68941;BME280;55982;51.476;7.552;2023-07-28T05:49:31;98888.72;;;19.62;100.00
68941;BME280;55982;51.476;7.552;2023-07-28T05:51:57;98897.91;;;19.58;100.00
68941;BME280;55982;51.476;7.552;2023-07-28T05:54:22;98894.53;;;19.56;100.00
68941;BME280;55982;51.476;7.552;2023-07-28T05:56:48;98906.06;;;19.66;100.00
68941;BME280;55982;51.476;7.552;2023-07-28T05:59:13;98892.06;;;19.64;100.00
68941;BME280;55982;51.476;7.552;2023-07-28T06:01:38;98898.53;;;19.71;100.00
68941;BME280;55982;51.476;7.552;2023-07-28T06:04:04;98902.81;;;19.83;100.00
68941;BME280;55982;51.476;7.552;2023-07-28T06:06:29;98907.59;;;19.89;100.00
68941;BME280;55982;51.476;7.552;2023-07-28T06:08:55;98911.25;;;19.98;100.00
68941;BME280;55982;51.476;7.552;2023-07-28T06:11:20;98907.81;;;20.28;100.00
68941;BME280;55982;51.476;7.552;2023-07-28T06:13:46;98907.59;;;20.50;100.00
68941;BME280;55982;51.476;7.552;2023-07-28T06:16:12;98903.28;;;20.49;100.00
68941;BME280;55982;51.476;7.552;2023-07-28T06:18:38;98910.13;;;20.42;100.00
68941;BME280;55982;51.476;7.552;2023-07-28T06:21:03;98915.03;;;20.56;100.00
68941;BME280;55982;51.476;7.552;2023-07-28T06:23:29;98910.88;;;20.63;100.00
68941;BME280;55982;51.476;7.552;2023-07-28T06:25:54;98912.69;;;20.62;100.00
68941;BME280;55982;51.476;7.552;2023-07-28T06:28:20;98927.78;;;20.62;100.00
68941;BME280;55982;51.476;7.552;2023-07-28T06:30:46;98921.63;;;20.61;100.00
68941;BME280;55982;51.476;7.552;2023-07-28T06:33:12;98923.28;;;20.53;100.00
68941;BME280;55982;51.476;7.552;2023-07-28T06:35:37;98925.28;;;20.60;100.00
68941;BME280;55982;51.476;7.552;2023-07-28T06:38:03;98931.72;;;20.67;100.00
68941;BME280;55982;51.476;7.552;2023-07-28T06:40:28;98921.59;;;20.52;100.00
68941;BME280;55982;51.476;7.552;2023-07-28T06:42:54;98929.13;;;20.47;100.00
68941;BME280;55982;51.476;7.552;2023-07-28T06:45:20;98941.28;;;20.40;100.00
68941;BME280;55982;51.476;7.552;2023-07-28T06:47:45;98938.41;;;20.62;100.00
68941;BME280;55982;51.476;7.552;2023-07-28T06:50:11;98945.19;;;20.75;100.00
68941;BME280;55982;51.476;7.552;2023-07-28T06:52:37;98941.59;;;20.56;100.00
68941;BME280;55982;51.476;7.552;2023-07-28T06:55:03;98951.81;;;20.51;100.00
68941;BME280;55982;51.476;7.552;2023-07-28T06:57:29;98947.91;;;20.55;100.00
68941;BME280;55982;51.476;7.552;2023-07-28T06:59:55;98949.94;;;20.32;100.00
68941;BME280;55982;51.476;7.552;2023-07-28T07:02:21;98951.44;;;20.35;100.00
68941;BME280;55982;51.476;7.552;2023-07-28T07:04:46;98952.34;;;20.45;100.00
68941;BME280;55982;51.476;7.552;2023-07-28T07:07:11;98967.72;;;20.41;100.00
68941;BME280;55982;51.476;7.552;2023-07-28T07:09:37;98968.84;;;20.48;100.00
68941;BME280;55982;51.476;7.552;2023-07-28T07:12:03;98963.63;;;20.77;100.00
68941;BME280;55982;51.476;7.552;2023-07-28T07:14:29;98964.25;;;20.90;100.00
68941;BME280;55982;51.476;7.552;2023-07-28T07:16:54;98954.47;;;21.00;100.00
68941;BME280;55982;51.476;7.552;2023-07-28T07:19:20;98967.72;;;20.81;100.00
68941;BME280;55982;51.476;7.552;2023-07-28T07:21:45;98973.59;;;21.24;100.00
68941;BME280;55982;51.476;7.552;2023-07-28T07:24:12;98967.72;;;21.40;100.00
68941;BME280;55982;51.476;7.552;2023-07-28T07:26:39;98973.03;;;21.30;100.00
68941;BME280;55982;51.476;7.552;2023-07-28T07:29:05;98979.19;;;21.40;100.00
68941;BME280;55982;51.476;7.552;2023-07-28T07:31:30;98976.09;;;21.26;100.00
68941;BME280;55982;51.476;7.552;2023-07-28T07:33:56;98976.94;;;21.07;100.00
68941;BME280;55982;51.476;7.552;2023-07-28T07:36:21;98983.41;;;21.33;100.00
68941;BME280;55982;51.476;7.552;2023-07-28T07:38:47;98975.56;;;21.41;100.00
68941;BME280;55982;51.476;7.552;2023-07-28T07:41:14;98976.13;;;21.35;100.00
68941;BME280;55982;51.476;7.552;2023-07-28T07:43:45;98977.50;;;21.30;100.00
68941;BME280;55982;51.476;7.552;2023-07-28T07:46:11;98986.91;;;21.43;100.00
68941;BME280;55982;51.476;7.552;2023-07-28T07:48:37;98984.53;;;21.59;100.00
68941;BME280;55982;51.476;7.552;2023-07-28T07:51:03;98975.00;;;21.19;100.00
68941;BME280;55982;51.476;7.552;2023-07-28T07:53:28;98982.81;;;21.20;100.00
68941;BME280;55982;51.476;7.552;2023-07-28T07:55:54;98994.88;;;21.34;100.00
68941;BME280;55982;51.476;7.552;2023-07-28T07:58:19;98976.81;;;21.56;100.00
68941;BME280;55982;51.476;7.552;2023-07-28T08:00:45;98973.59;;;22.01;100.00
68941;BME280;55982;51.476;7.552;2023-07-28T08:03:10;98966.00;;;22.06;100.00
68941;BME280;55982;51.476;7.552;2023-07-28T08:05:35;98971.34;;;21.96;100.00
68941;BME280;55982;51.476;7.552;2023-07-28T08:08:01;98964.91;;;21.99;100.00
68941;BME280;55982;51.476;7.552;2023-07-28T08:10:26;98962.41;;;21.68;100.00
68941;BME280;55982;51.476;7.552;2023-07-28T08:12:53;98970.81;;;21.64;100.00
68941;BME280;55982;51.476;7.552;2023-07-28T08:15:18;98978.38;;;21.49;100.00
68941;BME280;55982;51.476;7.552;2023-07-28T08:17:44;98985.91;;;21.73;100.00
68941;BME280;55982;51.476;7.552;2023-07-28T08:20:10;98983.69;;;21.49;100.00
68941;BME280;55982;51.476;7.552;2023-07-28T08:22:35;98990.53;;;21.61;100.00
68941;BME280;55982;51.476;7.552;2023-07-28T08:25:00;98988.19;;;21.68;100.00
68941;BME280;55982;51.476;7.552;2023-07-28T08:27:26;98980.19;;;21.77;100.00
68941;BME280;55982;51.476;7.552;2023-07-28T08:29:51;98985.13;;;21.82;100.00
68941;BME280;55982;51.476;7.552;2023-07-28T08:32:16;98986.63;;;21.94;100.00
68941;BME280;55982;51.476;7.552;2023-07-28T08:34:42;98989.22;;;22.23;100.00
68941;BME280;55982;51.476;7.552;2023-07-28T08:37:07;98980.53;;;22.21;100.00
68941;BME280;55982;51.476;7.552;2023-07-28T08:39:33;98988.19;;;21.97;100.00
68941;BME280;55982;51.476;7.552;2023-07-28T08:42:00;98996.31;;;21.76;100.00
68941;BME280;55982;51.476;7.552;2023-07-28T08:44:25;99001.34;;;21.79;100.00
68941;BME280;55982;51.476;7.552;2023-07-28T08:46:52;99009.22;;;21.80;100.00
68941;BME280;55982;51.476;7.552;2023-07-28T08:49:17;99005.56;;;21.62;100.00
68941;BME280;55982;51.476;7.552;2023-07-28T08:51:42;99001.34;;;21.89;100.00
68941;BME280;55982;51.476;7.552;2023-07-28T08:54:13;99022.94;;;21.66;100.00
68941;BME280;55982;51.476;7.552;2023-07-28T08:56:38;99009.78;;;21.84;100.00
68941;BME280;55982;51.476;7.552;2023-07-28T08:59:04;99010.84;;;22.29;100.00
68941;BME280;55982;51.476;7.552;2023-07-28T09:01:29;99013.00;;;22.53;100.00
68941;BME280;55982;51.476;7.552;2023-07-28T09:03:55;99010.72;;;23.31;100.00
68941;BME280;55982;51.476;7.552;2023-07-28T09:06:28;99000.50;;;23.80;100.00
68941;BME280;55982;51.476;7.552;2023-07-28T09:08:56;99012.41;;;23.68;100.00
68941;BME280;55982;51.476;7.552;2023-07-28T09:11:24;99009.91;;;23.48;100.00
68941;BME280;55982;51.476;7.552;2023-07-28T09:13:53;99008.84;;;23.14;100.00
68941;BME280;55982;51.476;7.552;2023-07-28T09:16:20;99016.19;;;23.03;100.00
68941;BME280;55982;51.476;7.552;2023-07-28T09:18:45;99011.66;;;22.86;100.00
68941;BME280;55982;51.476;7.552;2023-07-28T09:21:18;99012.31;;;22.97;100.00
68941;BME280;55982;51.476;7.552;2023-07-28T09:23:46;99021.50;;;23.39;100.00
68941;BME280;55982;51.476;7.552;2023-07-28T09:26:14;99017.31;;;23.27;100.00
68941;BME280;55982;51.476;7.552;2023-07-28T09:28:40;99011.59;;;23.22;100.00
68941;BME280;55982;51.476;7.552;2023-07-28T09:31:07;99023.84;;;23.42;100.00
68941;BME280;55982;51.476;7.552;2023-07-28T09:33:34;99018.69;;;23.58;100.00
68941;BME280;55982;51.476;7.552;2023-07-28T09:36:11;99016.97;;;24.28;100.00
68941;BME280;55982;51.476;7.552;2023-07-28T09:38:38;98999.66;;;24.40;100.00
68941;BME280;55982;51.476;7.552;2023-07-28T09:41:04;99006.91;;;24.73;100.00
68941;BME280;55982;51.476;7.552;2023-07-28T09:43:37;99004.22;;;24.73;100.00
68941;BME280;55982;51.476;7.552;2023-07-28T09:46:04;99002.88;;;24.51;100.00
68941;BME280;55982;51.476;7.552;2023-07-28T09:48:32;99006.03;;;24.21;100.00
68941;BME280;55982;51.476;7.552;2023-07-28T09:51:01;99002.44;;;24.90;100.00
68941;BME280;55982;51.476;7.552;2023-07-28T09:53:28;98999.22;;;26.10;100.00
68941;BME280;55982;51.476;7.552;2023-07-28T09:55:55;98987.88;;;26.71;100.00
68941;BME280;55982;51.476;7.552;2023-07-28T09:58:23;98986.53;;;26.67;100.00
68941;BME280;55982;51.476;7.552;2023-07-28T10:00:49;98996.47;;;25.54;100.00
68941;BME280;55982;51.476;7.552;2023-07-28T10:03:16;98983.44;;;25.01;100.00
68941;BME280;55982;51.476;7.552;2023-07-28T10:05:42;98995.13;;;24.66;100.00
68941;BME280;55982;51.476;7.552;2023-07-28T10:08:09;99013.00;;;23.97;100.00
68941;BME280;55982;51.476;7.552;2023-07-28T10:10:35;99013.31;;;23.94;100.00
68941;BME280;55982;51.476;7.552;2023-07-28T10:13:00;99006.91;;;24.22;100.00
68941;BME280;55982;51.476;7.552;2023-07-28T10:15:31;98997.50;;;25.85;100.00
68941;BME280;55982;51.476;7.552;2023-07-28T10:17:58;98989.19;;;27.22;100.00
68941;BME280;55982;51.476;7.552;2023-07-28T10:20:38;98995.56;;;28.05;100.00
68941;BME280;55982;51.476;7.552;2023-07-28T10:25:34;99006.16;;;26.59;100.00
68941;BME280;55982;51.476;7.552;2023-07-28T10:28:00;99001.94;;;26.81;100.00
68941;BME280;55982;51.476;7.552;2023-07-28T10:30:27;99008.91;;;27.45;100.00
68941;BME280;55982;51.476;7.552;2023-07-28T10:32:55;99006.56;;;27.95;100.00
68941;BME280;55982;51.476;7.552;2023-07-28T10:35:25;99009.63;;;27.61;100.00
68941;BME280;55982;51.476;7.552;2023-07-28T10:37:53;99010.22;;;27.49;100.00
68941;BME280;55982;51.476;7.552;2023-07-28T10:42:48;99011.09;;;25.91;100.00
68941;BME280;55982;51.476;7.552;2023-07-28T10:45:13;99021.28;;;25.72;100.00
68941;BME280;55982;51.476;7.552;2023-07-28T10:47:39;99010.53;;;25.56;100.00
68941;BME280;55982;51.476;7.552;2023-07-28T10:50:08;99015.91;;;25.64;100.00
68941;BME280;55982;51.476;7.552;2023-07-28T10:52:34;99017.66;;;27.31;100.00
68941;BME280;55982;51.476;7.552;2023-07-28T10:54:59;99008.41;;;28.83;100.00
68941;BME280;55982;51.476;7.552;2023-07-28T10:57:25;99011.53;;;28.87;100.00
68941;BME280;55982;51.476;7.552;2023-07-28T10:59:51;99008.00;;;28.57;100.00
68941;BME280;55982;51.476;7.552;2023-07-28T11:02:16;99023.00;;;27.47;100.00
68941;BME280;55982;51.476;7.552;2023-07-28T11:04:46;99017.81;;;26.98;100.00
68941;BME280;55982;51.476;7.552;2023-07-28T11:07:14;99024.16;;;25.70;100.00
68941;BME280;55982;51.476;7.552;2023-07-28T11:09:40;99024.44;;;25.09;100.00
68941;BME280;55982;51.476;7.552;2023-07-28T11:12:08;99026.13;;;25.10;100.00
68941;BME280;55982;51.476;7.552;2023-07-28T11:14:34;99022.81;;;24.83;100.00
68941;BME280;55982;51.476;7.552;2023-07-28T11:17:00;99036.88;;;24.85;100.00
68941;BME280;55982;51.476;7.552;2023-07-28T11:19:26;99025.50;;;25.16;100.00
68941;BME280;55982;51.476;7.552;2023-07-28T11:21:51;99027.16;;;25.17;100.00
68941;BME280;55982;51.476;7.552;2023-07-28T11:24:19;99024.94;;;25.47;100.00
68941;BME280;55982;51.476;7.552;2023-07-28T11:26:45;99028.84;;;26.24;100.00
68941;BME280;55982;51.476;7.552;2023-07-28T11:29:11;99021.94;;;26.62;100.00
68941;BME280;55982;51.476;7.552;2023-07-28T11:31:36;99026.63;;;26.68;100.00
68941;BME280;55982;51.476;7.552;2023-07-28T11:34:02;99026.69;;;27.46;100.00
68941;BME280;55982;51.476;7.552;2023-07-28T11:36:29;99019.19;;;28.09;100.00
68941;BME280;55982;51.476;7.552;2023-07-28T11:38:57;99029.44;;;28.28;100.00
68941;BME280;55982;51.476;7.552;2023-07-28T11:41:23;99027.56;;;28.14;100.00
68941;BME280;55982;51.476;7.552;2023-07-28T11:43:50;99029.53;;;27.05;100.00
68941;BME280;55982;51.476;7.552;2023-07-28T11:46:34;99028.66;;;25.86;100.00
68941;BME280;55982;51.476;7.552;2023-07-28T11:49:17;99029.00;;;25.75;100.00
68941;BME280;55982;51.476;7.552;2023-07-28T11:51:53;99034.13;;;25.44;100.00
68941;BME280;55982;51.476;7.552;2023-07-28T11:54:24;99029.72;;;26.25;100.00
68941;BME280;55982;51.476;7.552;2023-07-28T11:56:51;99021.97;;;26.70;100.00
68941;BME280;55982;51.476;7.552;2023-07-28T11:59:19;99026.81;;;25.70;100.00
68941;BME280;55982;51.476;7.552;2023-07-28T12:01:52;99024.53;;;26.32;100.00
68941;BME280;55982;51.476;7.552;2023-07-28T12:04:32;99017.38;;;27.56;100.00
68941;BME280;55982;51.476;7.552;2023-07-28T12:07:16;99019.41;;;27.77;100.00
68941;BME280;55982;51.476;7.552;2023-07-28T12:09:49;99018.63;;;27.99;100.00
68941;BME280;55982;51.476;7.552;2023-07-28T12:12:18;99026.41;;;27.86;100.00
68941;BME280;55982;51.476;7.552;2023-07-28T12:14:44;99010.53;;;28.36;100.00
68941;BME280;55982;51.476;7.552;2023-07-28T12:17:13;99006.41;;;27.66;100.00
68941;BME280;55982;51.476;7.552;2023-07-28T12:19:42;99005.69;;;27.10;100.00
68941;BME280;55982;51.476;7.552;2023-07-28T12:22:08;99006.38;;;26.01;100.00
68941;BME280;55982;51.476;7.552;2023-07-28T12:24:34;99010.56;;;25.88;100.00
68941;BME280;55982;51.476;7.552;2023-07-28T12:26:59;99001.94;;;26.89;100.00
68941;BME280;55982;51.476;7.552;2023-07-28T12:29:24;99001.16;;;26.56;100.00
68941;BME280;55982;51.476;7.552;2023-07-28T12:31:50;99008.53;;;26.70;100.00
68941;BME280;55982;51.476;7.552;2023-07-28T12:34:15;99004.53;;;26.50;100.00
68941;BME280;55982;51.476;7.552;2023-07-28T12:36:40;99010.53;;;26.68;100.00
68941;BME280;55982;51.476;7.552;2023-07-28T12:39:06;99015.50;;;27.26;100.00
68941;BME280;55982;51.476;7.552;2023-07-28T12:41:31;99010.06;;;27.03;100.00
68941;BME280;55982;51.476;7.552;2023-07-28T12:43:57;99010.72;;;27.13;100.00
68941;BME280;55982;51.476;7.552;2023-07-28T12:46:22;99009.56;;;26.45;100.00
68941;BME280;55982;51.476;7.552;2023-07-28T12:48:47;99005.19;;;26.52;100.00
68941;BME280;55982;51.476;7.552;2023-07-28T12:51:13;99007.81;;;26.76;100.00
68941;BME280;55982;51.476;7.552;2023-07-28T12:53:38;99005.19;;;26.44;100.00
68941;BME280;55982;51.476;7.552;2023-07-28T12:56:03;99006.03;;;26.53;100.00